sensor_id;sensor_type;location;lat;lon;timestamp;P1;durP1;ratioP1;P2;durP2;ratioP2
73104;SDS011;61296;50.526;30.792;2022-07-22T00:06:10;12.05;;;6.63;;
73104;SDS011;61296;50.526;30.792;2022-07-22T00:21:30;11.50;;;6.68;;
73104;SDS011;61296;50.526;30.792;2022-07-22T00:36:49;10.52;;;6.25;;
73104;SDS011;61296;50.526;30.792;2022-07-22T00:52:09;13.98;;;7.25;;
73104;SDS011;61296;50.526;30.792;2022-07-22T01:07:30;9.70;;;7.00;;
73104;SDS011;61296;50.526;30.792;2022-07-22T01:22:50;11.43;;;6.85;;
73104;SDS011;61296;50.526;30.792;2022-07-22T01:38:10;12.43;;;7.10;;
73104;SDS011;61296;50.526;30.792;2022-07-22T01:53:30;12.73;;;6.65;;
73104;SDS011;61296;50.526;30.792;2022-07-22T02:08:50;12.40;;;7.07;;
73104;SDS011;61296;50.526;30.792;2022-07-22T02:24:33;11.27;;;6.95;;
73104;SDS011;61296;50.526;30.792;2022-07-22T02:39:52;9.60;;;6.13;;
73104;SDS011;61296;50.526;30.792;2022-07-22T02:55:12;11.10;;;6.65;;
73104;SDS011;61296;50.526;30.792;2022-07-22T03:10:32;9.95;;;6.10;;
73104;SDS011;61296;50.526;30.792;2022-07-22T03:25:52;8.82;;;5.13;;
73104;SDS011;61296;50.526;30.792;2022-07-22T03:41:11;8.60;;;4.95;;
73104;SDS011;61296;50.526;30.792;2022-07-22T03:56:31;7.25;;;4.93;;
73104;SDS011;61296;50.526;30.792;2022-07-22T04:11:52;9.65;;;4.65;;
73104;SDS011;61296;50.526;30.792;2022-07-22T04:27:12;5.35;;;4.15;;
73104;SDS011;61296;50.526;30.792;2022-07-22T04:42:32;8.88;;;4.55;;
73104;SDS011;61296;50.526;30.792;2022-07-22T04:57:52;9.25;;;4.55;;
73104;SDS011;61296;50.526;30.792;2022-07-22T05:13:13;6.30;;;5.00;;
73104;SDS011;61296;50.526;30.792;2022-07-22T05:28:33;6.40;;;4.15;;
73104;SDS011;61296;50.526;30.792;2022-07-22T05:43:53;6.95;;;4.28;;
73104;SDS011;61296;50.526;30.792;2022-07-22T05:59:12;5.00;;;3.65;;
73104;SDS011;61296;50.526;30.792;2022-07-22T06:14:32;4.78;;;3.38;;
73104;SDS011;61296;50.526;30.792;2022-07-22T06:29:51;7.90;;;3.63;;
73104;SDS011;61296;50.526;30.792;2022-07-22T06:45:11;4.07;;;3.00;;
73104;SDS011;61296;50.526;30.792;2022-07-22T07:00:30;5.65;;;3.00;;
73104;SDS011;61296;50.526;30.792;2022-07-22T07:16:08;2.95;;;2.30;;
73104;SDS011;61296;50.526;30.792;2022-07-22T07:31:27;3.22;;;2.60;;
73104;SDS011;61296;50.526;30.792;2022-07-22T07:46:48;2.75;;;2.50;;
73104;SDS011;61296;50.526;30.792;2022-07-22T08:02:08;2.65;;;2.45;;
73104;SDS011;61296;50.526;30.792;2022-07-22T08:17:27;2.50;;;2.30;;
73104;SDS011;61296;50.526;30.792;2022-07-22T08:32:47;6.13;;;2.50;;
73104;SDS011;61296;50.526;30.792;2022-07-22T08:48:07;2.20;;;2.00;;
73104;SDS011;61296;50.526;30.792;2022-07-22T09:03:32;5.93;;;2.47;;
73104;SDS011;61296;50.526;30.792;2022-07-22T09:19:02;5.53;;;2.55;;
73104;SDS011;61296;50.526;30.792;2022-07-22T09:34:35;2.58;;;2.10;;
73104;SDS011;61296;50.526;30.792;2022-07-22T09:50:13;3.10;;;2.80;;
73104;SDS011;61296;50.526;30.792;2022-07-22T10:05:52;2.40;;;2.20;;
73104;SDS011;61296;50.526;30.792;2022-07-22T10:21:14;4.22;;;2.10;;
73104;SDS011;61296;50.526;30.792;2022-07-22T10:36:38;2.13;;;1.83;;
73104;SDS011;61296;50.526;30.792;2022-07-22T10:52:12;2.60;;;1.70;;
73104;SDS011;61296;50.526;30.792;2022-07-22T11:07:42;1.85;;;1.70;;
73104;SDS011;61296;50.526;30.792;2022-07-22T11:23:03;2.15;;;1.80;;
73104;SDS011;61296;50.526;30.792;2022-07-22T11:38:23;3.35;;;1.58;;
73104;SDS011;61296;50.526;30.792;2022-07-22T11:53:42;1.70;;;1.60;;
73104;SDS011;61296;50.526;30.792;2022-07-22T12:09:08;2.35;;;1.60;;
73104;SDS011;61296;50.526;30.792;2022-07-22T12:40:07;2.05;;;1.80;;
73104;SDS011;61296;50.526;30.792;2022-07-22T12:55:31;2.08;;;1.88;;
73104;SDS011;61296;50.526;30.792;2022-07-22T13:10:52;1.58;;;1.48;;
73104;SDS011;61296;50.526;30.792;2022-07-22T13:26:12;3.22;;;1.60;;
73104;SDS011;61296;50.526;30.792;2022-07-22T13:41:32;1.42;;;1.30;;
73104;SDS011;61296;50.526;30.792;2022-07-22T13:56:51;3.35;;;1.83;;
73104;SDS011;61296;50.526;30.792;2022-07-22T14:12:11;1.85;;;1.70;;
73104;SDS011;61296;50.526;30.792;2022-07-22T14:27:31;2.22;;;2.03;;
73104;SDS011;61296;50.526;30.792;2022-07-22T14:42:50;2.30;;;1.80;;
73104;SDS011;61296;50.526;30.792;2022-07-22T14:58:10;1.60;;;1.50;;
73104;SDS011;61296;50.526;30.792;2022-07-22T15:13:30;1.92;;;1.83;;
73104;SDS011;61296;50.526;30.792;2022-07-22T15:28:50;2.17;;;2.00;;
73104;SDS011;61296;50.526;30.792;2022-07-22T15:44:10;2.00;;;1.75;;
73104;SDS011;61296;50.526;30.792;2022-07-22T15:59:29;1.60;;;1.50;;
73104;SDS011;61296;50.526;30.792;2022-07-22T16:14:52;2.10;;;1.63;;
73104;SDS011;61296;50.526;30.792;2022-07-22T16:30:12;1.90;;;1.75;;
73104;SDS011;61296;50.526;30.792;2022-07-22T16:45:33;1.70;;;1.60;;
73104;SDS011;61296;50.526;30.792;2022-07-22T17:00:52;3.42;;;1.60;;
73104;SDS011;61296;50.526;30.792;2022-07-22T17:16:12;5.05;;;1.90;;
73104;SDS011;61296;50.526;30.792;2022-07-22T17:31:31;2.03;;;1.90;;
73104;SDS011;61296;50.526;30.792;2022-07-22T17:46:51;2.50;;;2.30;;
73104;SDS011;61296;50.526;30.792;2022-07-22T18:02:10;2.88;;;2.10;;
73104;SDS011;61296;50.526;30.792;2022-07-22T18:17:30;5.45;;;2.15;;
73104;SDS011;61296;50.526;30.792;2022-07-22T18:32:49;2.55;;;2.10;;
73104;SDS011;61296;50.526;30.792;2022-07-22T18:48:09;2.13;;;2.03;;
73104;SDS011;61296;50.526;30.792;2022-07-22T19:03:28;3.38;;;2.22;;
73104;SDS011;61296;50.526;30.792;2022-07-22T19:18:48;2.42;;;2.22;;
73104;SDS011;61296;50.526;30.792;2022-07-22T19:34:07;2.47;;;2.17;;
73104;SDS011;61296;50.526;30.792;2022-07-22T19:49:26;4.18;;;2.72;;
73104;SDS011;61296;50.526;30.792;2022-07-22T20:04:46;2.30;;;2.10;;
73104;SDS011;61296;50.526;30.792;2022-07-22T20:20:05;4.85;;;2.40;;
73104;SDS011;61296;50.526;30.792;2022-07-22T20:35:25;3.20;;;2.20;;
73104;SDS011;61296;50.526;30.792;2022-07-22T20:50:45;2.75;;;2.55;;
73104;SDS011;61296;50.526;30.792;2022-07-22T21:06:05;2.67;;;2.47;;
73104;SDS011;61296;50.526;30.792;2022-07-22T21:21:25;2.55;;;2.35;;
73104;SDS011;61296;50.526;30.792;2022-07-22T21:36:44;3.20;;;2.22;;
73104;SDS011;61296;50.526;30.792;2022-07-22T21:52:04;3.78;;;2.80;;
73104;SDS011;61296;50.526;30.792;2022-07-22T22:07:23;4.30;;;3.58;;
73104;SDS011;61296;50.526;30.792;2022-07-22T22:22:42;3.95;;;3.50;;
73104;SDS011;61296;50.526;30.792;2022-07-22T22:38:02;3.40;;;3.10;;
73104;SDS011;61296;50.526;30.792;2022-07-22T22:53:22;4.07;;;3.40;;
73104;SDS011;61296;50.526;30.792;2022-07-22T23:08:41;4.75;;;3.42;;
73104;SDS011;61296;50.526;30.792;2022-07-22T23:24:01;3.92;;;3.60;;
73104;SDS011;61296;50.526;30.792;2022-07-22T23:39:20;5.20;;;3.30;;
73104;SDS011;61296;50.526;30.792;2022-07-22T23:54:39;4.55;;;3.65;;
